Time,TemperatureF,DewpointF,PressureIn,WindDirection,WindDirectionDegrees,WindSpeedMPH,WindSpeedGustMPH,Humidity,HourlyPrecipIn,Conditions,Clouds,dailyrainin,SoftwareType,DateUTC
2013-08-29 00:10:00,69.8,68.0,29.53,NNW,341,0.0,0.0,94,0.00,,,0.00,weatherlink.com 1.10,2013-08-29 05:10:00,
2013-08-29 00:25:00,69.5,68.0,29.52,NNW,341,0.0,0.0,94,0.00,,,0.00,weatherlink.com 1.10,2013-08-29 05:25:00,
2013-08-29 00:40:00,69.3,68.0,29.52,NNW,341,0.0,0.0,95,0.00,,,0.00,weatherlink.com 1.10,2013-08-29 05:40:00,
2013-08-29 00:55:00,69.1,67.0,29.51,NNW,341,0.0,0.0,94,0.00,,,0.00,weatherlink.com 1.10,2013-08-29 05:55:00,
2013-08-29 01:10:00,68.9,68.0,29.51,NNW,341,0.0,0.0,95,0.00,,,0.00,weatherlink.com 1.10,2013-08-29 06:10:00,
2013-08-29 01:25:00,68.7,67.0,29.51,NNW,341,0.0,0.0,95,0.00,,,0.00,weatherlink.com 1.10,2013-08-29 06:25:00,
2013-08-29 01:40:00,68.5,67.0,29.51,NNW,341,0.0,0.0,95,0.00,,,0.00,weatherlink.com 1.10,2013-08-29 06:40:00,
2013-08-29 01:55:00,68.3,67.0,29.50,NNW,341,0.0,0.0,95,0.00,,,0.00,weatherlink.com 1.10,2013-08-29 06:55:00,
2013-08-29 02:10:00,68.1,67.0,29.50,NNW,341,0.0,0.0,95,0.00,,,0.00,weatherlink.com 1.10,2013-08-29 07:10:00,
2013-08-29 02:25:00,68.0,67.0,29.50,NNW,341,0.0,0.0,95,0.00,,,0.00,weatherlink.com 1.10,2013-08-29 07:25:00,
2013-08-29 02:40:00,67.8,66.0,29.50,NNW,341,0.0,0.0,95,0.00,,,0.00,weatherlink.com 1.10,2013-08-29 07:40:00,
2013-08-29 02:55:00,67.6,66.0,29.50,NNW,341,0.0,0.0,95,0.00,,,0.00,weatherlink.com 1.10,2013-08-29 07:55:00,
2013-08-29 03:10:00,67.5,66.0,29.50,NNW,341,0.0,0.0,95,0.00,,,0.00,weatherlink.com 1.10,2013-08-29 08:10:00,
2013-08-29 03:25:00,67.3,66.0,29.50,NNW,341,0.0,0.0,95,0.00,,,0.00,weatherlink.com 1.10,2013-08-29 08:25:00,
2013-08-29 03:40:00,67.2,66.0,29.50,NNW,341,0.0,0.0,95,0.00,,,0.00,weatherlink.com 1.10,2013-08-29 08:40:00,
2013-08-29 03:55:00,67.0,66.0,29.50,NNW,341,0.0,0.0,95,0.00,,,0.00,weatherlink.com 1.10,2013-08-29 08:55:00,
2013-08-29 04:10:00,66.9,66.0,29.50,NNW,341,0.0,0.0,95,0.00,,,0.00,weatherlink.com 1.10,2013-08-29 09:10:00,
2013-08-29 04:25:00,66.7,65.0,29.50,NNW,341,0.0,0.0,95,0.00,,,0.00,weatherlink.com 1.10,2013-08-29 09:25:00,
2013-08-29 04:40:00,66.6,65.0,29.50,NNW,341,0.0,0.0,95,0.00,,,0.00,weatherlink.com 1.10,2013-08-29 09:40:00,
2013-08-29 04:55:00,66.4,65.0,29.51,NNW,341,0.0,0.0,95,0.00,,,0.00,weatherlink.com 1.10,2013-08-29 09:55:00,
2013-08-29 05:10:00,66.3,65.0,29.51,NNW,341,0.0,0.0,95,0.00,,,0.00,weatherlink.com 1.10,2013-08-29 10:10:00,
2013-08-29 05:25:00,66.2,65.0,29.52,NNW,341,0.0,0.0,95,0.00,,,0.00,weatherlink.com 1.10,2013-08-29 10:25:00,
2013-08-29 05:40:00,66.1,65.0,29.52,NNW,341,0.0,0.0,95,0.00,,,0.00,weatherlink.com 1.10,2013-08-29 10:40:00,
2013-08-29 05:55:00,65.9,65.0,29.53,NNW,341,0.0,0.0,95,0.00,,,0.00,weatherlink.com 1.10,2013-08-29 10:55:00,
2013-08-29 06:10:00,65.8,64.0,29.53,NNW,341,0.0,0.0,95,0.00,,,0.00,weatherlink.com 1.10,2013-08-29 11:10:00,
2013-08-29 06:25:00,65.7,64.0,29.54,NNW,341,0.0,0.0,95,0.00,,,0.00,weatherlink.com 1.10,2013-08-29 11:25:00,
2013-08-29 06:40:00,65.6,65.0,29.54,NNW,341,0.0,0.0,96,0.00,,,0.00,weatherlink.com 1.10,2013-08-29 11:40:00,
2013-08-29 06:55:00,65.7,65.0,29.55,NNW,341,0.0,0.0,96,0.00,,,0.00,weatherlink.com 1.10,2013-08-29 11:55:00,
2013-08-29 07:10:00,65.9,65.0,29.55,NNW,341,0.0,0.0,96,0.00,,,0.00,weatherlink.com 1.10,2013-08-29 12:10:00,
2013-08-29 07:25:00,66.2,65.0,29.55,NNW,341,0.0,0.0,96,0.00,,,0.00,weatherlink.com 1.10,2013-08-29 12:25:00,
2013-08-29 07:40:00,66.6,66.0,29.55,NNW,341,0.0,0.0,96,0.00,,,0.00,weatherlink.com 1.10,2013-08-29 12:40:00,
2013-08-29 07:55:00,67.4,67.0,29.55,NNW,341,0.0,0.0,97,0.00,,,0.00,weatherlink.com 1.10,2013-08-29 12:55:00,
2013-08-29 08:10:00,68.5,68.0,29.55,NNW,341,0.0,0.0,97,0.00,,,0.00,weatherlink.com 1.10,2013-08-29 13:10:00,
2013-08-29 08:25:00,69.8,69.0,29.55,NNW,341,0.0,0.0,97,0.00,,,0.00,weatherlink.com 1.10,2013-08-29 13:25:00,
2013-08-29 08:40:00,71.2,70.0,29.55,NNW,341,0.0,0.0,97,0.00,,,0.00,weatherlink.com 1.10,2013-08-29 13:40:00,
2013-08-29 08:55:00,72.0,71.0,29.55,NNW,341,0.0,0.0,97,0.00,,,0.00,weatherlink.com 1.10,2013-08-29 13:55:00,
2013-08-29 09:10:00,73.0,72.0,29.55,NNW,341,0.0,0.0,97,0.00,,,0.00,weatherlink.com 1.10,2013-08-29 14:10:00,
2013-08-29 09:26:00,74.0,73.0,29.55,NNW,337,0.0,4.0,96,0.00,,,0.00,weatherlink.com 1.10,2013-08-29 14:26:00,
2013-08-29 09:41:00,75.7,73.0,29.55,East,82,0.0,4.0,90,0.00,,,0.00,weatherlink.com 1.10,2013-08-29 14:41:00,
2013-08-29 09:56:00,77.2,73.0,29.55,ENE,58,0.0,2.0,87,0.00,,,0.00,weatherlink.com 1.10,2013-08-29 14:56:00,
2013-08-29 10:11:00,78.3,74.0,29.55,West,277,0.0,2.0,87,0.00,,,0.00,weatherlink.com 1.10,2013-08-29 15:11:00,
2013-08-29 10:26:00,79.9,75.0,29.55,NW,317,0.0,4.0,85,0.00,,,0.00,weatherlink.com 1.10,2013-08-29 15:26:00,
2013-08-29 10:41:00,81.7,75.0,29.55,NW,325,0.0,6.0,81,0.00,,,0.00,weatherlink.com 1.10,2013-08-29 15:41:00,
2013-08-29 10:56:00,82.0,75.0,29.54,NNW,327,1.0,4.0,80,0.00,,,0.00,weatherlink.com 1.10,2013-08-29 15:56:00,
2013-08-29 11:11:00,83.2,75.0,29.53,NW,317,0.0,5.0,76,0.00,,,0.00,weatherlink.com 1.10,2013-08-29 16:11:00,
2013-08-29 11:26:00,84.1,75.0,29.53,NW,318,0.0,4.0,73,0.00,,,0.00,weatherlink.com 1.10,2013-08-29 16:26:00,
2013-08-29 11:41:00,84.9,74.0,29.53,NW,323,0.0,5.0,70,0.00,,,0.00,weatherlink.com 1.10,2013-08-29 16:41:00,
2013-08-29 11:56:00,85.4,75.0,29.53,NNW,329,0.0,8.0,71,0.00,,,0.00,weatherlink.com 1.10,2013-08-29 16:56:00,
2013-08-29 12:11:00,86.0,74.0,29.52,NNW,338,5.0,7.0,68,0.00,,,0.00,weatherlink.com 1.10,2013-08-29 17:11:00,
2013-08-29 12:26:00,86.8,74.0,29.52,NNE,22,1.0,5.0,66,0.00,,,0.00,weatherlink.com 1.10,2013-08-29 17:26:00,
2013-08-29 12:41:00,87.1,72.0,29.51,NW,315,1.0,3.0,62,0.00,,,0.00,weatherlink.com 1.10,2013-08-29 17:41:00,
2013-08-29 12:56:00,87.7,72.0,29.51,NW,311,0.0,6.0,60,0.00,,,0.00,weatherlink.com 1.10,2013-08-29 17:56:00,
2013-08-29 13:11:00,87.6,72.0,29.51,NW,314,3.0,9.0,61,0.00,,,0.00,weatherlink.com 1.10,2013-08-29 18:11:00,
2013-08-29 13:26:00,87.8,73.0,29.50,NNW,333,1.0,9.0,61,0.00,,,0.00,weatherlink.com 1.10,2013-08-29 18:26:00,
2013-08-29 13:41:00,87.6,72.0,29.50,NW,319,0.0,7.0,60,0.00,,,0.00,weatherlink.com 1.10,2013-08-29 18:41:00,
2013-08-29 13:56:00,87.6,73.0,29.50,NW,322,0.0,7.0,62,0.00,,,0.00,weatherlink.com 1.10,2013-08-29 18:56:00,
2013-08-29 14:11:00,87.9,72.0,29.49,ENE,59,0.0,5.0,60,0.00,,,0.00,weatherlink.com 1.10,2013-08-29 19:11:00,
2013-08-29 14:26:00,87.7,72.0,29.48,East,86,0.0,7.0,60,0.00,,,0.00,weatherlink.com 1.10,2013-08-29 19:26:00,
2013-08-29 14:41:00,87.5,73.0,29.48,NNW,327,2.0,5.0,62,0.00,,,0.00,weatherlink.com 1.10,2013-08-29 19:41:00,
2013-08-29 14:56:00,87.5,73.0,29.48,NW,313,4.0,8.0,62,0.00,,,0.00,weatherlink.com 1.10,2013-08-29 19:56:00,
2013-08-29 15:11:00,87.4,74.0,29.47,SW,229,1.0,3.0,64,0.00,,,0.00,weatherlink.com 1.10,2013-08-29 20:11:00,
2013-08-29 15:26:00,87.5,75.0,29.47,NW,319,0.0,3.0,66,0.00,,,0.00,weatherlink.com 1.10,2013-08-29 20:26:00,
2013-08-29 15:41:00,87.7,74.0,29.47,NW,326,0.0,7.0,64,0.00,,,0.00,weatherlink.com 1.10,2013-08-29 20:41:00,
2013-08-29 15:57:00,87.5,75.0,29.47,NNW,327,0.0,3.0,67,0.00,,,0.00,weatherlink.com 1.10,2013-08-29 20:57:00,
2013-08-29 16:12:00,87.4,75.0,29.46,NNW,329,0.0,6.0,66,0.00,,,0.00,weatherlink.com 1.10,2013-08-29 21:12:00,
2013-08-29 16:27:00,86.9,73.0,29.46,NW,321,0.0,4.0,64,0.00,,,0.00,weatherlink.com 1.10,2013-08-29 21:27:00,
2013-08-29 16:42:00,87.0,75.0,29.46,North,350,0.0,4.0,67,0.00,,,0.00,weatherlink.com 1.10,2013-08-29 21:42:00,
2013-08-29 16:57:00,86.7,76.0,29.46,SE,129,0.0,3.0,70,0.00,,,0.00,weatherlink.com 1.10,2013-08-29 21:57:00,
2013-08-29 17:12:00,86.5,73.0,29.45,NW,304,0.0,5.0,65,0.00,,,0.00,weatherlink.com 1.10,2013-08-29 22:12:00,
2013-08-29 17:27:00,86.2,74.0,29.45,NW,309,0.0,4.0,68,0.00,,,0.00,weatherlink.com 1.10,2013-08-29 22:27:00,
2013-08-29 17:42:00,85.6,74.0,29.45,North,9,2.0,6.0,68,0.00,,,0.00,weatherlink.com 1.10,2013-08-29 22:42:00,
2013-08-29 17:57:00,85.3,75.0,29.45,NNW,345,0.0,1.0,72,0.00,,,0.00,weatherlink.com 1.10,2013-08-29 22:57:00,
2013-08-29 18:12:00,84.4,77.0,29.45,North,360,0.0,3.0,77,0.00,,,0.00,weatherlink.com 1.10,2013-08-29 23:12:00,
2013-08-29 18:27:00,82.9,76.0,29.45,North,360,0.0,0.0,79,0.00,,,0.00,weatherlink.com 1.10,2013-08-29 23:27:00,
2013-08-29 18:42:00,81.5,76.0,29.46,North,360,0.0,0.0,82,0.00,,,0.00,weatherlink.com 1.10,2013-08-29 23:42:00,
2013-08-29 18:57:00,80.6,75.0,29.46,North,360,0.0,0.0,83,0.00,,,0.00,weatherlink.com 1.10,2013-08-29 23:57:00,
2013-08-29 19:12:00,79.8,75.0,29.46,North,360,0.0,0.0,84,0.00,,,0.00,weatherlink.com 1.10,2013-08-30 00:12:00,
2013-08-29 19:27:00,78.8,74.0,29.46,North,360,0.0,0.0,85,0.00,,,0.00,weatherlink.com 1.10,2013-08-30 00:27:00,
2013-08-29 19:42:00,78.0,74.0,29.46,North,360,0.0,0.0,86,0.00,,,0.00,weatherlink.com 1.10,2013-08-30 00:42:00,
2013-08-29 19:57:00,77.1,73.0,29.46,North,360,0.0,0.0,86,0.00,,,0.00,weatherlink.com 1.10,2013-08-30 00:57:00,
2013-08-29 20:12:00,76.5,73.0,29.46,North,360,0.0,0.0,88,0.00,,,0.00,weatherlink.com 1.10,2013-08-30 01:12:00,
2013-08-29 20:27:00,75.9,72.0,29.46,North,360,0.0,0.0,88,0.00,,,0.00,weatherlink.com 1.10,2013-08-30 01:27:00,
2013-08-29 20:42:00,75.4,72.0,29.46,North,360,0.0,0.0,89,0.00,,,0.00,weatherlink.com 1.10,2013-08-30 01:42:00,
2013-08-29 20:57:00,75.0,72.0,29.48,North,360,0.0,0.0,90,0.00,,,0.00,weatherlink.com 1.10,2013-08-30 01:57:00,
2013-08-29 21:12:00,74.7,72.0,29.48,North,360,0.0,0.0,91,0.00,,,0.00,weatherlink.com 1.10,2013-08-30 02:12:00,
2013-08-29 21:27:00,74.3,72.0,29.48,North,360,0.0,0.0,91,0.00,,,0.00,weatherlink.com 1.10,2013-08-30 02:27:00,
2013-08-29 21:42:00,74.0,71.0,29.48,North,360,0.0,0.0,91,0.00,,,0.00,weatherlink.com 1.10,2013-08-30 02:42:00,
2013-08-29 21:57:00,73.7,71.0,29.47,North,360,0.0,0.0,92,0.00,,,0.00,weatherlink.com 1.10,2013-08-30 02:57:00,
2013-08-29 22:12:00,73.4,71.0,29.47,North,360,0.0,0.0,93,0.00,,,0.00,weatherlink.com 1.10,2013-08-30 03:12:00,
2013-08-29 22:27:00,73.1,71.0,29.47,North,360,0.0,0.0,93,0.00,,,0.00,weatherlink.com 1.10,2013-08-30 03:27:00,
2013-08-29 22:42:00,72.9,71.0,29.47,North,360,0.0,0.0,93,0.00,,,0.00,weatherlink.com 1.10,2013-08-30 03:42:00,
2013-08-29 22:57:00,72.7,71.0,29.47,North,360,0.0,0.0,93,0.00,,,0.00,weatherlink.com 1.10,2013-08-30 03:57:00,
2013-08-29 23:12:00,72.4,70.0,29.47,North,360,0.0,0.0,93,0.00,,,0.00,weatherlink.com 1.10,2013-08-30 04:12:00,
2013-08-29 23:27:00,72.3,71.0,29.46,North,360,0.0,0.0,94,0.00,,,0.00,weatherlink.com 1.10,2013-08-30 04:27:00,
2013-08-29 23:42:00,72.1,70.0,29.46,North,360,0.0,0.0,94,0.00,,,0.00,weatherlink.com 1.10,2013-08-30 04:42:00,
2013-08-29 23:57:00,71.9,70.0,29.46,North,360,0.0,0.0,94,0.00,,,0.00,weatherlink.com 1.10,2013-08-30 04:57:00,